createdAt,value
2018-10-02T00:00:00.607Z,78.63
2018-10-02T00:02:29.360Z,78.90
2018-10-02T00:04:57.912Z,78.43
2018-10-02T00:07:26.434Z,79.24
2018-10-02T00:09:54.975Z,78.53
2018-10-02T00:12:28.786Z,78.86
2018-10-02T00:14:57.319Z,78.09
2018-10-02T00:17:25.850Z,78.41
2018-10-02T00:19:54.492Z,78.90
2018-10-02T00:22:23.143Z,79.25
2018-10-02T00:24:51.809Z,78.98
2018-10-02T00:27:20.345Z,79.56
2018-10-02T00:29:48.890Z,80.03
2018-10-02T00:32:17.541Z,80.42
2018-10-02T00:34:46.206Z,80.19
2018-10-02T00:37:14.793Z,80.56
2018-10-02T00:39:43.569Z,80.92
2018-10-02T00:42:12.253Z,80.01
2018-10-02T00:44:40.906Z,80.23
2018-10-02T00:47:09.675Z,80.37
2018-10-02T00:49:38.285Z,79.69
2018-10-02T00:52:06.867Z,80.24
2018-10-02T00:54:35.758Z,80.17
2018-10-02T00:57:04.426Z,79.49
2018-10-02T00:59:33.294Z,79.47
2018-10-02T01:02:01.946Z,79.95
2018-10-02T01:04:30.629Z,80.25
2018-10-02T01:06:59.469Z,79.62
2018-10-02T01:09:28.109Z,79.45
2018-10-02T01:11:56.722Z,79.46
2018-10-02T01:14:25.709Z,80.03
2018-10-02T01:16:54.313Z,79.00
2018-10-02T01:19:23.015Z,78.99
2018-10-02T01:21:51.844Z,78.69
2018-10-02T01:24:20.966Z,78.96
2018-10-02T01:26:49.513Z,78.82
2018-10-02T01:29:18.240Z,78.82
2018-10-02T01:31:46.805Z,79.19
2018-10-02T01:34:15.776Z,78.62
2018-10-02T01:36:44.442Z,78.72
2018-10-02T01:39:13.097Z,79.28
2018-10-02T01:41:41.657Z,79.53
2018-10-02T01:44:10.215Z,80.55
2018-10-02T01:46:38.776Z,80.94
2018-10-02T01:49:07.382Z,81.62
2018-10-02T01:51:36.236Z,81.40
2018-10-02T01:54:05.245Z,82.24
2018-10-02T01:56:33.863Z,81.87
2018-10-02T01:59:02.390Z,82.45
2018-10-02T02:01:31.095Z,82.52
2018-10-02T02:03:59.705Z,82.13
2018-10-02T02:06:28.246Z,82.61
2018-10-02T02:08:56.885Z,82.94
2018-10-02T02:11:26.627Z,83.21
2018-10-02T02:13:55.614Z,82.50
2018-10-02T02:16:24.910Z,83.27
2018-10-02T02:18:53.463Z,82.61
2018-10-02T02:21:21.998Z,82.68
2018-10-02T02:23:50.538Z,82.83
2018-10-02T02:26:19.120Z,82.87
2018-10-02T02:28:47.662Z,82.28
2018-10-02T02:31:16.325Z,82.53
2018-10-02T02:33:44.910Z,82.46
2018-10-02T02:36:13.474Z,82.74
2018-10-02T02:38:42.078Z,82.44
2018-10-02T02:41:10.990Z,82.40
2018-10-02T02:43:39.522Z,83.14
2018-10-02T02:46:08.213Z,82.37
2018-10-02T02:48:42.122Z,82.27
2018-10-02T02:51:15.963Z,82.90
2018-10-02T02:53:44.551Z,82.06
2018-10-02T02:56:13.157Z,81.63
2018-10-02T02:58:41.721Z,81.94
2018-10-02T03:01:10.273Z,81.77
2018-10-02T03:03:38.849Z,81.87
2018-10-02T03:06:07.513Z,81.86
2018-10-02T03:08:36.179Z,81.30
2018-10-02T03:11:04.752Z,80.62
2018-10-02T03:13:33.302Z,81.35
2018-10-02T03:16:01.853Z,81.75
2018-10-02T03:18:30.661Z,80.88
2018-10-02T03:20:59.277Z,81.51
2018-10-02T03:23:27.935Z,81.02
2018-10-02T03:25:56.566Z,82.00
2018-10-02T03:28:25.154Z,82.16
2018-10-02T03:30:53.723Z,80.82
2018-10-02T03:33:22.330Z,81.71
2018-10-02T03:35:50.966Z,81.10
2018-10-02T03:38:19.575Z,81.17
2018-10-02T03:40:48.244Z,80.41
2018-10-02T03:43:16.794Z,81.54
2018-10-02T03:45:45.402Z,81.30
2018-10-02T03:48:13.945Z,80.61
2018-10-02T03:50:42.491Z,81.24
2018-10-02T03:53:11.038Z,81.51
2018-10-02T03:55:40.603Z,81.37
2018-10-02T03:58:09.252Z,81.10
2018-10-02T04:00:37.992Z,80.92
2018-10-02T04:03:06.582Z,81.06
2018-10-02T04:05:35.235Z,80.98
2018-10-02T04:08:03.767Z,81.77
2018-10-02T04:10:32.345Z,81.32
2018-10-02T04:13:00.911Z,82.16
2018-10-02T04:15:30.230Z,81.42
2018-10-02T04:17:58.836Z,81.84
2018-10-02T04:20:27.426Z,81.51
2018-10-02T04:22:56.113Z,81.40
2018-10-02T04:25:24.664Z,81.50
2018-10-02T04:27:53.425Z,81.90
2018-10-02T04:30:22.167Z,81.29
2018-10-02T04:32:50.898Z,81.97
2018-10-02T04:35:19.567Z,81.69
2018-10-02T04:37:48.186Z,82.15
2018-10-02T04:40:16.766Z,81.00
2018-10-02T04:42:45.354Z,80.96
2018-10-02T04:45:13.905Z,81.50
2018-10-02T04:47:42.505Z,80.95
2018-10-02T04:50:11.177Z,81.13
2018-10-02T04:52:39.847Z,80.84
2018-10-02T04:55:08.514Z,80.23
2018-10-02T04:57:37.053Z,80.82
2018-10-02T05:00:06.279Z,81.30
2018-10-02T05:02:34.850Z,80.49
2018-10-02T05:05:03.438Z,81.04
2018-10-02T05:07:32.006Z,80.48
2018-10-02T05:10:00.748Z,79.55
2018-10-02T05:12:29.481Z,80.54
2018-10-02T05:14:58.141Z,79.71
2018-10-02T05:17:26.688Z,80.09
2018-10-02T05:19:55.240Z,80.07
2018-10-02T05:22:23.865Z,79.61
2018-10-02T05:24:52.512Z,80.03
2018-10-02T05:27:21.244Z,80.63
2018-10-02T05:29:49.995Z,80.56
2018-10-02T05:32:18.607Z,80.80
2018-10-02T05:34:47.140Z,79.82
2018-10-02T05:37:15.725Z,80.20
2018-10-02T05:39:44.266Z,80.62
2018-10-02T05:42:12.931Z,80.57
2018-10-02T05:44:41.560Z,80.31
2018-10-02T05:47:10.166Z,80.97
2018-10-02T05:49:39.437Z,80.90
2018-10-02T05:52:08.004Z,81.08
2018-10-02T05:54:37.138Z,81.00
2018-10-02T05:57:05.654Z,79.32
2018-10-02T05:59:34.207Z,78.12
2018-10-02T06:02:03.190Z,77.18
2018-10-02T06:04:31.988Z,77.69
2018-10-02T06:07:00.865Z,76.71
2018-10-02T06:09:29.432Z,77.01
2018-10-02T06:11:58.006Z,77.15
2018-10-02T06:14:26.584Z,77.00
2018-10-02T06:16:55.174Z,77.39
2018-10-02T06:19:24.052Z,78.03
2018-10-02T06:21:52.703Z,77.75
2018-10-02T06:24:21.269Z,77.47
2018-10-02T06:26:49.923Z,77.54
2018-10-02T06:29:18.599Z,77.01
2018-10-02T06:31:47.328Z,76.22
2018-10-02T06:34:16.066Z,77.09
2018-10-02T06:36:44.835Z,75.72
2018-10-02T06:39:13.711Z,74.95
2018-10-02T06:41:42.340Z,73.88
2018-10-02T06:44:11.194Z,73.54
2018-10-02T06:46:39.968Z,72.65
2018-10-02T06:49:08.528Z,73.42
2018-10-02T06:51:37.158Z,72.48
2018-10-02T06:54:05.881Z,72.77
2018-10-02T06:56:34.621Z,71.53
2018-10-02T06:59:03.358Z,71.98
2018-10-02T07:01:31.914Z,70.63
2018-10-02T07:04:00.518Z,69.35
2018-10-02T07:06:29.389Z,68.86
2018-10-02T07:08:58.002Z,68.70
2018-10-02T07:11:26.710Z,67.95
2018-10-02T07:13:55.357Z,66.81
2018-10-02T07:16:24.045Z,66.01
2018-10-02T07:18:52.821Z,64.34
2018-10-02T07:21:21.375Z,63.89
2018-10-02T07:23:49.946Z,63.72
2018-10-02T07:26:18.519Z,63.60
2018-10-02T07:28:47.144Z,62.25
2018-10-02T07:31:15.760Z,61.47
2018-10-02T07:33:44.800Z,63.63
2018-10-02T07:36:13.502Z,63.10
2018-10-02T07:38:42.198Z,63.24
2018-10-02T07:41:10.878Z,64.07
2018-10-02T07:43:39.486Z,64.74
2018-10-02T07:46:08.590Z,63.45
2018-10-02T07:48:37.850Z,63.01
2018-10-02T07:51:07.543Z,63.18
2018-10-02T07:53:36.540Z,64.24
2018-10-02T07:56:05.397Z,64.15
2018-10-02T07:58:34.113Z,64.62
2018-10-02T08:01:02.688Z,64.50
2018-10-02T08:03:31.234Z,65.12
2018-10-02T08:05:59.945Z,64.63
2018-10-02T08:08:28.879Z,64.36
2018-10-02T08:10:57.778Z,64.65
2018-10-02T08:13:26.494Z,63.35
2018-10-02T08:15:55.315Z,63.41
2018-10-02T08:18:23.978Z,62.72
2018-10-02T08:20:52.824Z,62.60
2018-10-02T08:23:21.564Z,61.05
2018-10-02T08:25:51.885Z,60.21
2018-10-02T08:28:21.746Z,59.47
2018-10-02T08:30:51.358Z,59.68
2018-10-02T08:33:19.969Z,58.68
2018-10-02T08:35:48.736Z,59.53
2018-10-02T08:38:18.329Z,57.71
2018-10-02T08:40:46.989Z,57.22
2018-10-02T08:43:15.814Z,57.60
2018-10-02T08:45:44.520Z,57.68
2018-10-02T08:48:13.133Z,57.91
2018-10-02T08:50:41.806Z,57.04
2018-10-02T08:53:10.485Z,57.65
2018-10-02T08:55:39.268Z,56.83
2018-10-02T08:58:08.191Z,55.83
2018-10-02T09:00:37.514Z,56.55
2018-10-02T09:03:06.639Z,54.85
2018-10-02T09:05:35.430Z,54.60
2018-10-02T09:08:04.249Z,53.61
2018-10-02T09:10:32.899Z,52.62
2018-10-02T09:13:02.086Z,53.33
2018-10-02T09:15:30.801Z,53.30
2018-10-02T09:17:59.662Z,53.35
2018-10-02T09:20:28.486Z,52.81
2018-10-02T09:22:57.051Z,51.66
2018-10-02T09:25:25.625Z,51.48
2018-10-02T09:27:54.402Z,50.64
2018-10-02T09:30:28.529Z,50.63
2018-10-02T09:33:02.456Z,51.35
2018-10-02T09:35:36.268Z,50.52
2018-10-02T09:38:10.190Z,51.67
2018-10-02T09:40:44.817Z,52.65
2018-10-02T09:43:18.918Z,53.40
2018-10-02T09:45:47.566Z,54.11
2018-10-02T09:48:16.226Z,54.51
2018-10-02T09:50:44.942Z,53.51
2018-10-02T09:53:13.653Z,53.20
2018-10-02T09:55:42.381Z,52.66
2018-10-02T09:58:11.286Z,53.10
2018-10-02T10:00:45.328Z,52.27
2018-10-02T10:03:14.648Z,52.39
2018-10-02T10:05:43.221Z,51.06
2018-10-02T10:08:11.845Z,50.59
2018-10-02T10:10:40.611Z,49.17
2018-10-02T10:13:09.432Z,50.25
2018-10-02T10:15:38.080Z,49.28
2018-10-02T10:18:07.332Z,49.62
2018-10-02T10:20:36.560Z,49.94
2018-10-02T10:23:05.217Z,49.92
2018-10-02T10:25:33.947Z,50.22
2018-10-02T10:28:02.550Z,49.96
2018-10-02T10:30:31.902Z,50.46
2018-10-02T10:33:00.546Z,51.25
2018-10-02T10:35:29.171Z,50.79
2018-10-02T10:37:57.781Z,52.37
2018-10-02T10:40:26.592Z,51.60
2018-10-02T10:42:55.134Z,52.51
2018-10-02T10:45:23.691Z,52.60
2018-10-02T10:47:52.412Z,52.40
2018-10-02T10:50:20.996Z,54.36
2018-10-02T10:52:49.541Z,54.13
2018-10-02T10:55:33.633Z,53.01
2018-10-02T10:58:02.295Z,53.33
2018-10-02T11:00:30.945Z,53.02
2018-10-02T11:02:59.513Z,52.72
2018-10-02T11:05:28.274Z,53.16
2018-10-02T11:07:56.831Z,51.06
2018-10-02T11:10:25.393Z,50.57
2018-10-02T11:12:54.036Z,51.27
2018-10-02T11:15:23.363Z,51.16
2018-10-02T11:17:52.251Z,50.64
2018-10-02T11:20:25.286Z,51.96
2018-10-02T11:22:54.078Z,53.27
2018-10-02T11:25:22.802Z,53.00
2018-10-02T11:27:51.614Z,54.06
2018-10-02T11:30:20.201Z,53.19
2018-10-02T11:32:48.749Z,52.61
2018-10-02T11:35:17.327Z,51.97
2018-10-02T11:37:46.219Z,52.34
2018-10-02T11:40:14.949Z,51.48
2018-10-02T11:42:43.642Z,49.98
2018-10-02T11:45:12.303Z,50.03
2018-10-02T11:47:40.867Z,49.99
2018-10-02T11:50:09.487Z,49.99
2018-10-02T11:52:38.138Z,49.87
2018-10-02T11:55:07.104Z,50.44
2018-10-02T11:57:35.836Z,50.20
2018-10-02T12:00:05.047Z,50.41
2018-10-02T12:02:33.808Z,48.55
2018-10-02T12:05:02.674Z,48.05
2018-10-02T12:07:31.222Z,47.62
2018-10-02T12:09:59.773Z,47.81
2018-10-02T12:12:28.338Z,47.46
2018-10-02T12:14:56.993Z,47.86
2018-10-02T12:17:25.713Z,48.55
2018-10-02T12:19:54.856Z,47.89
2018-10-02T12:22:23.473Z,48.03
2018-10-02T12:24:52.017Z,48.14
2018-10-02T12:27:20.636Z,47.60
2018-10-02T12:29:49.178Z,46.97
2018-10-02T12:32:17.727Z,46.52
2018-10-02T12:34:46.409Z,46.69
2018-10-02T12:37:15.058Z,45.69
2018-10-02T12:39:43.942Z,46.27
2018-10-02T12:42:13.185Z,45.67
2018-10-02T12:44:41.832Z,46.74
2018-10-02T12:47:10.367Z,47.54
2018-10-02T12:49:39.105Z,46.39
2018-10-02T12:52:07.789Z,45.77
2018-10-02T12:54:37.007Z,45.17
2018-10-02T12:57:05.742Z,45.87
2018-10-02T12:59:34.513Z,46.07
2018-10-02T13:02:03.037Z,44.91
2018-10-02T13:04:31.629Z,46.10
2018-10-02T13:07:00.336Z,44.54
2018-10-02T13:09:29.093Z,45.51
2018-10-02T13:11:57.980Z,47.23
2018-10-02T13:14:26.774Z,47.10
2018-10-02T13:16:55.633Z,46.97
2018-10-02T13:19:24.486Z,46.53
2018-10-02T13:21:53.127Z,46.68
2018-10-02T13:24:21.781Z,47.32
2018-10-02T13:26:50.605Z,46.80
2018-10-02T13:29:19.567Z,46.30
2018-10-02T13:31:48.117Z,46.61
2018-10-02T13:34:17.207Z,47.28
2018-10-02T13:36:45.862Z,47.75
2018-10-02T13:39:14.410Z,48.12
2018-10-02T13:41:43.197Z,48.15
2018-10-02T13:44:11.940Z,47.23
2018-10-02T13:46:40.570Z,46.46
2018-10-02T13:49:09.141Z,46.94
2018-10-02T13:51:37.895Z,45.58
2018-10-02T13:54:06.795Z,45.75
2018-10-02T13:56:35.454Z,45.99
2018-10-02T13:59:04.358Z,46.98
2018-10-02T14:01:33.026Z,47.43
2018-10-02T14:04:02.186Z,48.40
2018-10-02T14:06:30.917Z,47.59
2018-10-02T14:08:59.582Z,47.93
2018-10-02T14:11:28.307Z,48.56
2018-10-02T14:13:57.321Z,48.91
2018-10-02T14:16:26.054Z,49.50
2018-10-02T14:18:55.452Z,47.13
2018-10-02T14:21:24.173Z,46.40
2018-10-02T14:23:53.676Z,45.89
2018-10-02T14:26:22.217Z,45.72
2018-10-02T14:28:50.849Z,46.64
2018-10-02T14:31:20.142Z,46.82
2018-10-02T14:33:48.898Z,46.05
2018-10-02T14:36:17.525Z,47.57
2018-10-02T14:38:46.101Z,47.40
2018-10-02T14:41:14.648Z,46.44
2018-10-02T14:43:43.183Z,45.89
2018-10-02T14:46:11.766Z,46.28
2018-10-02T14:48:42.221Z,47.16
2018-10-02T14:51:10.883Z,47.17
2018-10-02T14:53:39.629Z,47.74
2018-10-02T14:56:08.302Z,48.71
2018-10-02T14:58:36.933Z,48.70
2018-10-02T15:01:05.478Z,48.41
2018-10-02T15:03:34.028Z,48.25
2018-10-02T15:06:02.581Z,48.12
2018-10-02T15:08:31.137Z,47.52
2018-10-02T15:10:59.848Z,47.35
2018-10-02T15:13:28.427Z,47.39
2018-10-02T15:15:57.047Z,46.81
2018-10-02T15:18:25.597Z,47.29
2018-10-02T15:20:54.511Z,47.18
2018-10-02T15:23:23.453Z,47.44
2018-10-02T15:25:52.058Z,47.62
2018-10-02T15:28:20.729Z,48.67
2018-10-02T15:30:49.402Z,49.99
2018-10-02T15:33:17.990Z,48.65
2018-10-02T15:35:46.629Z,47.74
2018-10-02T15:38:15.170Z,48.64
2018-10-02T15:40:43.743Z,48.48
2018-10-02T15:43:12.414Z,48.72
2018-10-02T15:45:43.199Z,48.77
2018-10-02T15:48:11.880Z,48.18
2018-10-02T15:50:40.539Z,47.10
2018-10-02T15:53:09.346Z,47.19
2018-10-02T15:55:37.963Z,48.53
2018-10-02T15:58:06.602Z,47.86
2018-10-02T16:00:35.548Z,48.09
2018-10-02T16:03:04.242Z,49.57
2018-10-02T16:05:32.921Z,49.37
2018-10-02T16:08:01.626Z,49.05
2018-10-02T16:10:30.282Z,50.01
2018-10-02T16:12:58.964Z,50.15
2018-10-02T16:15:28.300Z,51.39
2018-10-02T16:17:56.896Z,52.53
2018-10-02T16:20:25.604Z,53.14
2018-10-02T16:22:54.224Z,52.47
2018-10-02T16:25:23.031Z,53.65
2018-10-02T16:27:51.679Z,53.82
2018-10-02T16:30:20.468Z,54.22
2018-10-02T16:32:49.037Z,54.83
2018-10-02T16:35:17.754Z,53.81
2018-10-02T16:37:46.437Z,54.03
2018-10-02T16:40:15.343Z,53.86
2018-10-02T16:42:43.935Z,54.41
2018-10-02T16:45:12.699Z,54.88
2018-10-02T16:47:41.281Z,54.30
2018-10-02T16:50:09.964Z,54.74
2018-10-02T16:52:39.025Z,55.70
2018-10-02T16:55:07.752Z,54.90
2018-10-02T16:57:37.317Z,55.68
2018-10-02T17:00:06.326Z,55.06
2018-10-02T17:02:34.957Z,55.78
2018-10-02T17:05:03.718Z,54.69
2018-10-02T17:07:32.481Z,55.59
2018-10-02T17:10:01.099Z,55.43
2018-10-02T17:12:29.678Z,55.88
2018-10-02T17:14:58.413Z,56.27
2018-10-02T17:17:27.004Z,56.72
2018-10-02T17:19:55.622Z,56.55
2018-10-02T17:22:24.244Z,56.17
2018-10-02T17:24:53.008Z,56.67
2018-10-02T17:27:21.637Z,56.23
2018-10-02T17:29:50.323Z,56.98
2018-10-02T17:32:18.918Z,56.65
2018-10-02T17:34:47.500Z,57.15
2018-10-02T17:37:16.114Z,57.07
2018-10-02T17:39:44.792Z,56.69
2018-10-02T17:42:13.686Z,56.81
2018-10-02T17:44:42.339Z,56.26
2018-10-02T17:47:11.050Z,57.33
2018-10-02T17:49:39.590Z,56.67
2018-10-02T17:52:08.935Z,56.76
2018-10-02T17:54:37.516Z,56.74
2018-10-02T17:57:06.134Z,56.94
2018-10-02T17:59:34.821Z,56.63
2018-10-02T18:02:03.782Z,57.23
2018-10-02T18:04:32.403Z,56.97
2018-10-02T18:07:01.024Z,56.65
2018-10-02T18:09:29.615Z,56.44
2018-10-02T18:11:58.225Z,57.03
2018-10-02T18:14:26.834Z,55.86
2018-10-02T18:16:55.487Z,56.17
2018-10-02T18:19:24.145Z,56.62
2018-10-02T18:21:52.699Z,56.42
2018-10-02T18:24:21.268Z,56.21
2018-10-02T18:26:49.853Z,56.41
2018-10-02T18:29:18.480Z,56.56
2018-10-02T18:31:47.371Z,56.19
2018-10-02T18:34:16.302Z,56.22
2018-10-02T18:36:44.994Z,56.56
2018-10-02T18:39:13.690Z,56.23
2018-10-02T18:41:42.385Z,57.43
2018-10-02T18:44:11.013Z,56.99
2018-10-02T18:46:39.624Z,57.53
2018-10-02T18:49:08.682Z,57.35
2018-10-02T18:51:37.880Z,57.23
2018-10-02T18:54:06.992Z,56.95
2018-10-02T18:56:35.977Z,57.20
2018-10-02T18:59:04.744Z,57.40
2018-10-02T19:01:33.357Z,57.78
2018-10-02T19:04:02.650Z,56.64
2018-10-02T19:06:31.600Z,57.02
2018-10-02T19:09:05.291Z,57.68
2018-10-02T19:11:39.149Z,57.32
2018-10-02T19:14:07.877Z,57.08
2018-10-02T19:16:36.697Z,56.69
2018-10-02T19:19:05.356Z,57.33
2018-10-02T19:21:33.950Z,57.09
2018-10-02T19:24:02.540Z,56.95
2018-10-02T19:26:31.300Z,57.89
2018-10-02T19:28:59.870Z,57.61
2018-10-02T19:31:33.614Z,57.81
2018-10-02T19:34:02.207Z,57.80
2018-10-02T19:36:30.767Z,57.83
2018-10-02T19:39:01.251Z,58.48
2018-10-02T19:41:30.327Z,57.87
2018-10-02T19:43:59.117Z,58.10
2018-10-02T19:46:31.829Z,58.35
2018-10-02T19:49:00.413Z,58.89
2018-10-02T19:51:34.294Z,58.86
2018-10-02T19:54:02.886Z,58.69
2018-10-02T19:56:31.414Z,58.81
2018-10-02T19:59:00.026Z,59.06
2018-10-02T20:01:28.768Z,59.42
2018-10-02T20:03:57.410Z,60.24
2018-10-02T20:06:26.010Z,59.82
2018-10-02T20:08:54.635Z,60.44
2018-10-02T20:11:23.207Z,60.34
2018-10-02T20:13:51.796Z,60.85
2018-10-02T20:16:20.622Z,60.98
2018-10-02T20:18:49.509Z,63.22
2018-10-02T20:21:18.193Z,64.90
2018-10-02T20:23:46.952Z,64.90
2018-10-02T20:26:15.574Z,66.27
2018-10-02T20:28:44.153Z,68.33
2018-10-02T20:31:12.758Z,69.87
2018-10-02T20:33:41.312Z,70.38
2018-10-02T20:36:10.032Z,70.75
2018-10-02T20:38:38.662Z,70.45
2018-10-02T20:41:07.227Z,70.34
2018-10-02T20:43:35.994Z,70.42
2018-10-02T20:46:04.588Z,71.50
2018-10-02T20:48:33.131Z,71.28
2018-10-02T20:51:01.792Z,71.77
2018-10-02T20:53:30.448Z,71.38
2018-10-02T20:55:59.195Z,71.98
2018-10-02T20:58:27.759Z,72.29
2018-10-02T21:00:56.366Z,72.05
2018-10-02T21:03:24.909Z,71.31
2018-10-02T21:05:53.458Z,70.90
2018-10-02T21:08:22.100Z,70.45
2018-10-02T21:10:50.733Z,70.39
2018-10-02T21:13:19.330Z,71.04
2018-10-02T21:15:47.897Z,70.91
2018-10-02T21:18:16.494Z,70.46
2018-10-02T21:20:45.068Z,70.33
2018-10-02T21:23:13.615Z,70.52
2018-10-02T21:25:42.830Z,70.31
2018-10-02T21:28:11.494Z,71.69
2018-10-02T21:30:40.962Z,73.02
2018-10-02T21:33:09.648Z,74.18
2018-10-02T21:35:38.202Z,74.43
2018-10-02T21:38:06.806Z,74.16
2018-10-02T21:40:35.460Z,75.62
2018-10-02T21:43:04.046Z,75.49
2018-10-02T21:45:33.046Z,75.19
2018-10-02T21:48:01.838Z,75.78
2018-10-02T21:50:30.447Z,76.93
2018-10-02T21:52:59.862Z,77.70
2018-10-02T21:55:28.397Z,80.30
2018-10-02T21:57:56.990Z,80.73
2018-10-02T22:00:26.030Z,81.93
2018-10-02T22:02:54.859Z,81.82
2018-10-02T22:05:24.182Z,83.44
2018-10-02T22:07:52.890Z,83.93
2018-10-02T22:10:21.557Z,85.02
2018-10-02T22:12:50.322Z,84.37
2018-10-02T22:15:19.006Z,85.64
2018-10-02T22:17:47.776Z,85.65
2018-10-02T22:20:16.337Z,86.06
2018-10-02T22:22:44.872Z,86.31
2018-10-02T22:25:13.809Z,86.16
2018-10-02T22:27:43.106Z,86.34
2018-10-02T22:30:13.134Z,86.48
2018-10-02T22:32:43.186Z,87.46
2018-10-02T22:35:12.087Z,87.55
2018-10-02T22:37:40.742Z,88.49
2018-10-02T22:40:09.702Z,88.26
2018-10-02T22:42:38.333Z,88.44
2018-10-02T22:45:06.888Z,88.64
2018-10-02T22:47:35.623Z,88.77
2018-10-02T22:50:04.467Z,89.68
2018-10-02T22:52:33.267Z,88.95
2018-10-02T22:55:02.046Z,89.26
2018-10-02T22:57:31.370Z,89.60
2018-10-02T23:00:00.133Z,89.76
2018-10-02T23:02:28.715Z,89.91
2018-10-02T23:04:58.398Z,89.70
2018-10-02T23:07:26.981Z,89.79
2018-10-02T23:09:55.728Z,90.17
2018-10-02T23:12:25.105Z,89.86
2018-10-02T23:14:53.983Z,90.04
2018-10-02T23:17:22.601Z,89.90
2018-10-02T23:19:51.184Z,90.55
2018-10-02T23:22:19.761Z,90.34
2018-10-02T23:24:48.346Z,90.01
2018-10-02T23:27:16.982Z,90.48
2018-10-02T23:29:46.265Z,90.23
2018-10-02T23:32:16.594Z,90.71
2018-10-02T23:34:45.274Z,91.05
2018-10-02T23:37:14.002Z,90.95
2018-10-02T23:39:43.022Z,90.34
2018-10-02T23:42:11.636Z,90.65
2018-10-02T23:44:40.241Z,90.83
2018-10-02T23:47:08.822Z,90.88
2018-10-02T23:49:37.410Z,90.47
2018-10-02T23:52:06.903Z,91.12
2018-10-02T23:54:36.085Z,90.54
2018-10-02T23:57:04.827Z,91.21
2018-10-02T23:59:33.495Z,91.06
